Time;durP1;ratioP1;P1;durP2;ratioP2;P2;SDS_P1;SDS_P2;PMS_P1;PMS_P2;Temp;Humidity;BMP_temperature;BMP_pressure;BME280_temperature;BME280_humidity;BME280_pressure;Samples;Min_cycle;Max_cycle;Signal;HPM_P1;HPM_P2
2023/08/21 00:01:16;;;;;;;13.75;9.02;;;24.20;99.90;;;;;;5012575;28;20121;-69
2023/08/21 00:03:42;;;;;;;13.73;8.35;;;24.10;99.90;;;;;;4997700;28;20030;-68
2023/08/21 00:06:07;;;;;;;12.25;8.05;;;24.20;99.90;;;;;;4997388;28;20027;-68
2023/08/21 00:08:33;;;;;;;14.55;8.35;;;24.20;99.90;;;;;;4996995;28;20030;-68
2023/08/21 00:10:59;;;;;;;10.32;7.38;;;24.20;99.90;;;;;;4997871;28;20027;-68
2023/08/21 00:13:24;;;;;;;15.48;8.65;;;24.10;99.90;;;;;;4996768;28;20094;-68
2023/08/21 00:15:50;;;;;;;16.52;9.52;;;24.10;99.90;;;;;;4997706;28;20069;-68
2023/08/21 00:18:15;;;;;;;12.57;8.68;;;24.00;99.90;;;;;;4997571;28;20027;-68
2023/08/21 00:20:42;;;;;;;19.58;9.43;;;24.00;99.90;;;;;;4997060;28;20023;-68
2023/08/21 00:23:08;;;;;;;14.07;8.27;;;24.00;99.90;;;;;;4996671;28;20113;-68
2023/08/21 00:25:34;;;;;;;10.18;8.18;;;23.90;99.90;;;;;;4996915;28;20061;-69
2023/08/21 00:28:00;;;;;;;13.00;8.43;;;23.90;99.90;;;;;;5012973;28;20053;-68
2023/08/21 00:30:25;;;;;;;14.02;8.82;;;23.90;99.90;;;;;;4997198;28;20109;-68
2023/08/21 00:32:51;;;;;;;14.05;8.27;;;23.90;99.90;;;;;;4997028;28;20109;-68
2023/08/21 00:35:16;;;;;;;12.73;8.52;;;23.90;99.90;;;;;;4996559;28;20058;-68
2023/08/21 00:37:42;;;;;;;11.63;8.40;;;23.90;99.90;;;;;;4997454;28;20033;-68
2023/08/21 00:40:08;;;;;;;16.17;8.63;;;24.00;99.90;;;;;;4997020;28;20109;-68
2023/08/21 00:42:34;;;;;;;15.70;9.23;;;24.00;99.90;;;;;;4996464;28;20061;-68
2023/08/21 00:44:59;;;;;;;10.90;8.32;;;23.90;99.90;;;;;;4997574;28;20038;-68
2023/08/21 00:47:25;;;;;;;12.30;8.48;;;23.90;99.90;;;;;;4996519;28;20069;-68
2023/08/21 00:49:51;;;;;;;13.55;8.18;;;23.90;99.90;;;;;;4996780;28;20030;-68
2023/08/21 00:52:17;;;;;;;12.93;8.18;;;23.80;99.90;;;;;;4997361;28;20029;-68
2023/08/21 00:54:43;;;;;;;14.15;9.00;;;23.80;99.90;;;;;;5013856;28;20049;-68
2023/08/21 00:57:10;;;;;;;12.35;8.63;;;23.80;99.90;;;;;;4996717;28;20049;-68
2023/08/21 00:59:37;;;;;;;12.60;8.05;;;23.80;99.90;;;;;;4997275;28;20027;-68
2023/08/21 01:02:03;;;;;;;14.75;9.13;;;23.70;99.90;;;;;;4996398;28;20023;-68
2023/08/21 01:04:28;;;;;;;12.30;8.57;;;23.70;99.90;;;;;;4996587;28;20018;-68
2023/08/21 01:06:54;;;;;;;12.93;8.57;;;23.70;99.90;;;;;;4996244;28;20026;-68
2023/08/21 01:09:39;;;;;;;13.98;8.05;;;23.70;99.90;;;;;;4997102;28;20022;-68
2023/08/21 01:12:07;;;;;;;11.35;7.88;;;23.70;99.90;;;;;;4998576;28;20030;-68
2023/08/21 01:14:58;;;;;;;12.30;7.88;;;23.60;99.90;;;;;;5016267;28;20056;-68
2023/08/21 01:17:24;;;;;;;10.70;7.87;;;23.60;99.90;;;;;;5000277;28;20022;-68
2023/08/21 01:19:50;;;;;;;11.70;8.25;;;23.60;99.90;;;;;;5016095;28;20264;-68
2023/08/21 01:22:16;;;;;;;16.95;8.30;;;23.60;99.90;;;;;;5000861;28;20018;-68
2023/08/21 01:24:42;;;;;;;13.05;8.07;;;23.50;99.90;;;;;;5000413;28;20097;-68
2023/08/21 01:27:09;;;;;;;15.40;8.43;;;23.50;99.90;;;;;;5000532;28;20031;-68
2023/08/21 01:29:35;;;;;;;12.75;9.20;;;23.40;99.90;;;;;;4999829;28;20034;-68
2023/08/21 01:32:30;;;;;;;11.93;8.15;;;23.40;99.90;;;;;;5000271;28;20026;-68
2023/08/21 01:34:56;;;;;;;13.38;8.10;;;23.40;99.90;;;;;;4989166;28;20030;-68
2023/08/21 01:37:24;;;;;;;10.70;7.90;;;23.40;99.90;;;;;;5015640;28;20049;-68
2023/08/21 01:39:49;;;;;;;15.27;8.27;;;23.40;99.90;;;;;;4999622;28;20032;-68
2023/08/21 01:42:15;;;;;;;10.73;8.43;;;23.20;99.90;;;;;;4999500;28;20038;-68
2023/08/21 01:44:40;;;;;;;11.75;7.70;;;23.30;99.90;;;;;;4999270;28;20025;-68
2023/08/21 01:47:06;;;;;;;15.15;7.95;;;23.20;99.90;;;;;;4999507;28;20030;-68
2023/08/21 01:49:32;;;;;;;15.45;8.95;;;23.20;99.90;;;;;;4999382;28;20026;-68
2023/08/21 01:51:57;;;;;;;8.77;7.38;;;23.20;99.90;;;;;;4999542;28;20026;-68
2023/08/21 01:54:23;;;;;;;10.27;8.10;;;23.20;99.90;;;;;;4999392;28;20022;-68
2023/08/21 01:56:48;;;;;;;10.07;7.65;;;23.20;99.90;;;;;;5000074;28;20026;-68
2023/08/21 01:59:16;;;;;;;13.25;7.50;;;23.20;99.90;;;;;;4999057;28;20034;-68
2023/08/21 02:01:42;;;;;;;14.23;7.88;;;23.20;99.90;;;;;;4998886;28;20065;-69
2023/08/21 02:04:07;;;;;;;12.20;8.23;;;23.20;99.90;;;;;;4999163;28;20026;-68
2023/08/21 02:06:33;;;;;;;10.93;7.45;;;23.20;99.90;;;;;;4998898;28;20018;-68
2023/08/21 02:08:59;;;;;;;10.38;7.50;;;23.10;99.90;;;;;;4999734;28;20022;-68
2023/08/21 02:11:24;;;;;;;13.32;7.78;;;23.20;99.90;;;;;;4999089;28;20022;-68
2023/08/21 02:13:50;;;;;;;9.38;7.35;;;23.20;99.90;;;;;;5015265;28;20054;-68
2023/08/21 02:16:15;;;;;;;12.27;8.27;;;23.10;99.90;;;;;;4999554;28;20096;-68
2023/08/21 02:18:41;;;;;;;11.93;8.38;;;23.00;99.90;;;;;;4998822;28;20027;-68
2023/08/21 02:21:06;;;;;;;10.38;8.27;;;22.90;99.90;;;;;;4998729;28;20027;-68
2023/08/21 02:23:32;;;;;;;16.60;7.72;;;22.90;99.90;;;;;;4997983;28;20034;-68
2023/08/21 02:25:58;;;;;;;9.60;7.60;;;22.90;99.90;;;;;;4999597;28;20078;-68
2023/08/21 02:28:23;;;;;;;18.63;7.82;;;23.00;99.90;;;;;;4999415;28;20030;-68
2023/08/21 02:30:49;;;;;;;11.32;6.82;;;22.90;99.90;;;;;;4998378;28;20025;-68
2023/08/21 02:33:14;;;;;;;8.90;7.13;;;22.80;99.90;;;;;;5015661;28;20023;-68
2023/08/21 02:35:41;;;;;;;9.93;7.03;;;22.80;99.90;;;;;;4998412;28;20083;-68
2023/08/21 02:38:06;;;;;;;9.95;6.72;;;22.90;99.90;;;;;;4998371;28;20027;-68
2023/08/21 02:40:32;;;;;;;11.35;7.10;;;22.90;99.90;;;;;;4998231;28;20035;-68
2023/08/21 02:42:58;;;;;;;11.02;7.38;;;22.90;99.90;;;;;;5037758;22;20042;-67
2023/08/21 02:45:23;;;;;;;11.88;7.95;;;23.00;99.90;;;;;;5034164;28;20072;-66
2023/08/21 02:47:49;;;;;;;11.23;7.68;;;22.90;99.90;;;;;;5017725;28;20025;-66
2023/08/21 02:50:14;;;;;;;15.23;8.10;;;23.00;99.90;;;;;;5018663;28;20099;-66
2023/08/21 02:52:40;;;;;;;13.27;7.82;;;22.90;99.90;;;;;;5034311;28;20022;-67
2023/08/21 02:55:06;;;;;;;12.80;8.63;;;22.90;99.90;;;;;;5018071;28;20022;-67
2023/08/21 02:57:31;;;;;;;11.75;7.90;;;22.80;99.90;;;;;;5017538;28;20032;-67
2023/08/21 02:59:57;;;;;;;11.00;7.47;;;22.80;99.90;;;;;;5018464;28;20022;-67
2023/08/21 03:02:23;;;;;;;14.90;7.85;;;22.80;99.90;;;;;;5017858;28;20120;-67
2023/08/21 03:04:49;;;;;;;10.93;8.00;;;22.80;99.90;;;;;;5034125;28;20046;-66
2023/08/21 03:07:15;;;;;;;12.15;7.43;;;22.80;99.90;;;;;;5017462;28;20041;-66
2023/08/21 03:09:41;;;;;;;9.63;7.25;;;22.80;99.90;;;;;;5017970;28;20054;-66
2023/08/21 03:12:07;;;;;;;14.82;7.93;;;22.80;99.90;;;;;;5017259;28;20052;-66
2023/08/21 03:14:33;;;;;;;10.73;7.40;;;22.90;99.90;;;;;;5017414;28;20068;-66
2023/08/21 03:16:59;;;;;;;11.00;7.45;;;22.80;99.90;;;;;;5018007;28;20030;-67
2023/08/21 03:19:24;;;;;;;17.98;7.95;;;22.80;99.90;;;;;;5017832;28;20026;-66
2023/08/21 03:21:51;;;;;;;14.07;7.95;;;22.70;99.90;;;;;;5017346;28;20030;-66
2023/08/21 03:24:16;;;;;;;14.15;7.80;;;22.60;99.90;;;;;;5017932;28;20030;-66
2023/08/21 03:26:42;;;;;;;10.20;7.57;;;22.60;99.90;;;;;;5017028;28;20110;-66
2023/08/21 03:29:07;;;;;;;17.25;7.80;;;22.60;99.90;;;;;;5017020;28;20032;-67
2023/08/21 03:31:33;;;;;;;12.00;7.78;;;22.60;99.90;;;;;;5017261;28;20022;-67
2023/08/21 03:33:58;;;;;;;10.13;7.18;;;22.60;99.90;;;;;;5016897;28;20029;-67
2023/08/21 03:36:33;;;;;;;10.30;6.93;;;22.60;99.90;;;;;;5016974;28;20029;-67
2023/08/21 03:38:59;;;;;;;11.77;7.55;;;22.60;99.90;;;;;;5018150;28;20040;-67
2023/08/21 03:41:25;;;;;;;7.85;6.93;;;22.60;99.90;;;;;;5016952;28;20034;-66
2023/08/21 03:43:51;;;;;;;12.23;7.80;;;22.60;99.90;;;;;;5034267;28;20083;-67
2023/08/21 03:46:16;;;;;;;10.75;7.40;;;22.60;99.90;;;;;;5016776;28;20122;-67
2023/08/21 03:48:42;;;;;;;14.00;8.25;;;22.60;99.90;;;;;;5017707;28;20026;-66
2023/08/21 03:51:07;;;;;;;13.30;7.25;;;22.60;99.90;;;;;;5017514;28;20097;-66
2023/08/21 03:53:33;;;;;;;12.80;7.03;;;22.60;99.90;;;;;;5016622;28;20018;-66
2023/08/21 03:55:58;;;;;;;12.32;7.95;;;22.60;99.90;;;;;;5016932;28;20064;-66
2023/08/21 03:58:25;;;;;;;10.30;6.85;;;22.60;99.90;;;;;;5017742;28;20021;-67
2023/08/21 04:00:51;;;;;;;12.63;7.78;;;22.60;99.90;;;;;;5017533;28;20025;-67
2023/08/21 04:03:16;;;;;;;12.82;7.30;;;22.60;99.90;;;;;;5017270;28;20029;-67
2023/08/21 04:05:42;;;;;;;14.13;8.15;;;22.60;99.90;;;;;;5016572;28;20036;-67
2023/08/21 04:08:07;;;;;;;15.20;7.22;;;22.60;99.90;;;;;;5017349;28;20053;-67
2023/08/21 04:10:33;;;;;;;10.43;7.38;;;22.50;99.90;;;;;;5016418;28;20026;-67
2023/08/21 04:12:59;;;;;;;13.50;7.35;;;22.50;99.90;;;;;;5016324;28;20018;-67
2023/08/21 04:15:25;;;;;;;12.93;7.25;;;22.50;99.90;;;;;;5016421;28;20037;-67
2023/08/21 04:17:50;;;;;;;11.52;6.97;;;22.50;99.90;;;;;;5016650;28;20022;-67
2023/08/21 04:20:16;;;;;;;13.15;7.18;;;22.50;99.90;;;;;;5016679;28;20037;-67
2023/08/21 04:22:42;;;;;;;12.63;7.32;;;22.50;99.90;;;;;;5016283;28;20030;-67
2023/08/21 04:25:07;;;;;;;12.05;6.65;;;22.50;99.90;;;;;;5016329;28;20215;-67
2023/08/21 04:27:33;;;;;;;12.77;7.10;;;22.50;99.90;;;;;;5017328;28;20069;-67
2023/08/21 04:29:59;;;;;;;15.23;7.03;;;22.50;99.90;;;;;;5016430;28;20053;-67
2023/08/21 04:32:25;;;;;;;19.58;7.80;;;22.40;99.90;;;;;;5016262;28;20018;-67
2023/08/21 04:34:51;;;;;;;9.00;7.13;;;22.40;99.90;;;;;;5017558;28;20033;-67
2023/08/21 04:37:16;;;;;;;11.52;7.05;;;22.40;99.90;;;;;;5016148;28;20025;-67
2023/08/21 04:39:42;;;;;;;8.90;6.45;;;22.40;99.90;;;;;;5017089;28;20026;-66
2023/08/21 04:42:07;;;;;;;13.07;7.10;;;22.40;99.90;;;;;;5016239;28;20045;-67
2023/08/21 04:44:33;;;;;;;14.23;7.30;;;22.40;99.90;;;;;;5016075;28;20129;-67
2023/08/21 04:47:27;;;;;;;10.40;7.72;;;22.40;99.90;;;;;;5018144;28;20026;-67
2023/08/21 04:49:53;;;;;;;10.75;7.28;;;22.50;99.90;;;;;;5021157;28;20084;-67
2023/08/21 04:52:20;;;;;;;11.85;6.95;;;22.50;99.90;;;;;;5020439;28;20112;-67
2023/08/21 04:54:46;;;;;;;9.50;6.78;;;22.50;99.90;;;;;;5019851;28;20029;-67
2023/08/21 04:57:11;;;;;;;9.85;6.45;;;22.50;99.90;;;;;;5020737;28;20030;-67
2023/08/21 04:59:38;;;;;;;12.38;7.57;;;22.40;99.90;;;;;;5020653;28;20034;-67
2023/08/21 05:02:03;;;;;;;9.52;7.38;;;22.50;99.90;;;;;;5019927;28;20053;-67
2023/08/21 05:04:29;;;;;;;11.65;7.00;;;22.50;99.90;;;;;;5019773;28;20056;-67
2023/08/21 05:06:54;;;;;;;10.57;7.70;;;22.40;99.90;;;;;;5019483;28;20056;-67
2023/08/21 05:09:20;;;;;;;17.00;7.75;;;22.40;99.90;;;;;;5020722;28;20022;-67
2023/08/21 05:11:45;;;;;;;13.32;7.57;;;22.40;99.90;;;;;;5019736;28;20026;-67
2023/08/21 05:14:11;;;;;;;11.55;7.40;;;22.40;99.90;;;;;;5019654;28;20026;-67
2023/08/21 05:16:37;;;;;;;13.48;8.45;;;22.50;99.90;;;;;;5036605;28;20030;-67
2023/08/21 05:19:02;;;;;;;10.73;8.05;;;22.40;99.90;;;;;;5019366;28;20030;-67
2023/08/21 05:21:28;;;;;;;12.50;7.90;;;22.50;99.90;;;;;;5020066;28;20022;-67
2023/08/21 05:23:53;;;;;;;12.63;7.15;;;22.50;99.90;;;;;;5019392;28;20052;-67
2023/08/21 05:26:19;;;;;;;12.98;8.18;;;22.50;99.90;;;;;;5019164;28;20037;-67
2023/08/21 05:28:45;;;;;;;12.98;7.63;;;22.50;99.90;;;;;;5020089;28;20066;-67
2023/08/21 05:31:11;;;;;;;13.38;8.45;;;22.50;99.90;;;;;;5020135;28;20054;-67
2023/08/21 05:33:36;;;;;;;11.32;7.00;;;22.50;99.90;;;;;;5019358;28;20026;-67
2023/08/21 05:36:02;;;;;;;11.07;7.38;;;22.50;99.90;;;;;;5019189;28;20033;-67
2023/08/21 05:38:27;;;;;;;11.43;7.90;;;22.50;99.90;;;;;;5020182;28;20069;-66
2023/08/21 05:40:53;;;;;;;15.52;7.45;;;22.60;99.90;;;;;;5018954;28;20049;-67
2023/08/21 05:43:19;;;;;;;13.15;8.02;;;22.50;99.90;;;;;;5019812;28;20124;-67
2023/08/21 05:45:44;;;;;;;15.43;7.70;;;22.60;99.90;;;;;;5019895;28;20026;-67
2023/08/21 05:48:10;;;;;;;18.92;8.15;;;22.60;99.90;;;;;;5018863;28;20068;-67
2023/08/21 05:50:36;;;;;;;9.93;6.97;;;22.60;99.90;;;;;;5019026;28;20112;-67
2023/08/21 05:53:05;;;;;;;14.30;7.25;;;22.50;99.90;;;;;;5019004;28;20018;-67
2023/08/21 05:55:31;;;;;;;11.00;6.40;;;22.50;99.90;;;;;;5020212;28;20026;-67
2023/08/21 05:57:56;;;;;;;13.30;7.20;;;22.50;99.90;;;;;;5018091;28;20025;-67
2023/08/21 06:00:22;;;;;;;16.77;7.40;;;22.50;99.90;;;;;;5018513;28;20030;-67
2023/08/21 06:02:47;;;;;;;9.40;6.40;;;22.40;99.90;;;;;;5018955;28;20164;-67
2023/08/21 06:05:13;;;;;;;10.57;6.50;;;22.50;99.90;;;;;;5018417;28;20033;-67
2023/08/21 06:07:40;;;;;;;7.80;6.13;;;22.50;99.90;;;;;;5019581;28;20030;-67
2023/08/21 06:10:08;;;;;;;11.45;6.47;;;22.60;99.90;;;;;;5019245;28;20104;-67
2023/08/21 06:12:33;;;;;;;10.25;6.20;;;22.70;99.90;;;;;;5018777;28;20026;-67
2023/08/21 06:14:59;;;;;;;10.40;6.28;;;22.70;99.90;;;;;;5019384;28;20033;-67
2023/08/21 06:17:26;;;;;;;15.25;5.85;;;22.80;99.90;;;;;;5019343;28;20014;-67
2023/08/21 06:19:52;;;;;;;8.82;5.45;;;22.80;99.90;;;;;;5018356;28;20053;-67
2023/08/21 06:22:17;;;;;;;10.07;4.60;;;22.70;99.90;;;;;;5018275;28;20022;-67
2023/08/21 06:24:43;;;;;;;8.55;5.18;;;22.80;99.90;;;;;;5019137;28;20121;-67
2023/08/21 06:27:08;;;;;;;11.05;5.85;;;22.90;99.90;;;;;;5018903;28;20073;-67
2023/08/21 06:29:34;;;;;;;11.73;5.47;;;22.90;99.90;;;;;;5019132;28;20028;-67
2023/08/21 06:32:00;;;;;;;14.60;6.07;;;23.00;99.90;;;;;;5017915;28;20022;-67
2023/08/21 06:34:25;;;;;;;14.20;5.45;;;23.00;99.90;;;;;;5018411;28;20033;-67
2023/08/21 06:36:51;;;;;;;10.45;5.32;;;23.10;99.90;;;;;;5018095;28;20026;-67
2023/08/21 06:39:16;;;;;;;10.82;5.90;;;23.10;99.90;;;;;;5018486;28;20030;-67
2023/08/21 06:41:42;;;;;;;9.13;5.13;;;23.10;99.90;;;;;;5018117;28;20041;-67
2023/08/21 06:44:07;;;;;;;9.80;5.63;;;23.10;99.90;;;;;;5018274;28;20033;-67
2023/08/21 06:46:34;;;;;;;7.90;4.78;;;23.20;99.90;;;;;;5017899;28;20022;-67
2023/08/21 06:48:59;;;;;;;11.85;5.13;;;23.10;99.90;;;;;;5017774;28;20024;-67
2023/08/21 06:51:25;;;;;;;9.23;5.43;;;23.10;99.90;;;;;;5018658;28;20109;-68
2023/08/21 06:53:50;;;;;;;7.88;5.10;;;23.20;99.90;;;;;;5017858;28;20018;-67
2023/08/21 06:56:16;;;;;;;9.23;5.38;;;23.20;99.90;;;;;;5017677;28;20022;-67
2023/08/21 06:58:41;;;;;;;11.77;5.07;;;23.30;99.90;;;;;;5017591;28;20076;-68
2023/08/21 07:01:07;;;;;;;7.18;4.82;;;23.30;99.90;;;;;;5017353;28;20025;-67
2023/08/21 07:03:33;;;;;;;11.07;6.35;;;23.40;99.90;;;;;;5017922;28;20030;-67
2023/08/21 07:06:00;;;;;;;11.15;5.75;;;23.40;99.90;;;;;;5017310;28;20117;-67
2023/08/21 07:08:26;;;;;;;10.60;5.43;;;23.50;99.90;;;;;;5017376;28;20066;-67
2023/08/21 07:10:52;;;;;;;11.23;5.38;;;23.60;99.90;;;;;;5017563;28;20115;-67
2023/08/21 07:13:18;;;;;;;11.95;5.80;;;23.70;99.90;;;;;;5017800;28;20026;-67
2023/08/21 07:15:44;;;;;;;15.07;5.30;;;23.80;99.90;;;;;;5017632;28;20061;-67
2023/08/21 07:18:10;;;;;;;9.35;5.57;;;23.90;99.90;;;;;;5017261;28;20111;-67
2023/08/21 07:20:36;;;;;;;8.68;5.55;;;24.00;99.90;;;;;;5017258;28;20029;-67
2023/08/21 07:23:01;;;;;;;8.02;5.47;;;24.00;99.90;;;;;;5017089;28;20032;-67
2023/08/21 07:25:28;;;;;;;9.98;5.50;;;24.00;99.90;;;;;;5017895;28;20022;-67
2023/08/21 07:27:54;;;;;;;8.82;5.70;;;24.00;99.90;;;;;;5018267;28;20100;-67
2023/08/21 07:30:20;;;;;;;10.45;5.63;;;24.10;99.90;;;;;;5017014;28;20080;-67
2023/08/21 07:32:47;;;;;;;8.88;5.65;;;24.10;99.90;;;;;;5016935;28;20022;-67
2023/08/21 07:35:12;;;;;;;10.55;5.32;;;24.10;99.90;;;;;;5017002;28;20099;-67
2023/08/21 07:37:38;;;;;;;11.70;6.38;;;24.10;99.90;;;;;;5034619;28;20022;-67
2023/08/21 07:40:05;;;;;;;8.82;4.88;;;24.10;99.90;;;;;;5017806;28;20025;-68
2023/08/21 07:42:31;;;;;;;9.82;5.50;;;24.30;99.90;;;;;;5016766;28;20025;-68
2023/08/21 07:44:56;;;;;;;12.18;5.13;;;24.30;99.90;;;;;;5016896;28;20033;-68
2023/08/21 07:47:22;;;;;;;7.45;5.82;;;24.30;99.90;;;;;;5016730;28;20044;-68
2023/08/21 07:49:47;;;;;;;8.88;5.38;;;24.40;99.90;;;;;;5017100;28;20033;-67
2023/08/21 07:52:13;;;;;;;15.02;6.20;;;24.40;99.90;;;;;;5016839;28;20030;-67
2023/08/21 07:54:38;;;;;;;15.00;5.70;;;24.40;99.90;;;;;;5017039;28;20030;-68
2023/08/21 07:57:04;;;;;;;13.02;6.18;;;24.40;99.90;;;;;;5016551;28;20029;-68
2023/08/21 07:59:29;;;;;;;7.75;5.15;;;24.50;99.90;;;;;;5033101;28;20072;-68
2023/08/21 08:01:55;;;;;;;7.60;5.78;;;24.60;99.90;;;;;;5016863;28;20017;-68
2023/08/21 08:04:21;;;;;;;9.48;6.00;;;24.60;99.90;;;;;;5016852;28;20095;-68
2023/08/21 08:06:47;;;;;;;13.02;6.35;;;24.60;99.90;;;;;;5017854;28;20026;-68
2023/08/21 08:09:12;;;;;;;12.23;5.70;;;24.60;99.90;;;;;;5016439;28;20080;-67
2023/08/21 08:11:38;;;;;;;11.13;6.38;;;24.60;99.90;;;;;;5017191;28;20048;-68
2023/08/21 08:14:03;;;;;;;14.82;6.25;;;24.70;99.90;;;;;;5017292;28;20046;-68
2023/08/21 08:16:29;;;;;;;13.18;6.38;;;24.60;99.90;;;;;;5016488;28;20069;-68
2023/08/21 08:18:54;;;;;;;7.15;5.70;;;24.70;99.90;;;;;;5016450;28;20026;-68
2023/08/21 08:21:20;;;;;;;8.25;6.07;;;24.70;99.90;;;;;;5015765;28;20022;-68
2023/08/21 08:23:46;;;;;;;8.93;5.40;;;24.80;99.90;;;;;;5016334;28;20030;-67
2023/08/21 08:26:11;;;;;;;8.63;5.22;;;24.90;99.90;;;;;;5017098;28;20030;-67
2023/08/21 08:28:37;;;;;;;9.20;5.55;;;25.00;99.90;;;;;;5016306;28;20034;-68
2023/08/21 08:31:02;;;;;;;8.80;5.13;;;25.10;99.90;;;;;;5016142;28;20046;-68
2023/08/21 08:33:28;;;;;;;12.32;5.60;;;25.20;99.90;;;;;;5016197;28;20022;-68
2023/08/21 08:35:53;;;;;;;9.40;5.47;;;25.30;99.90;;;;;;5016592;28;20021;-67
2023/08/21 08:38:19;;;;;;;8.43;5.78;;;25.40;99.90;;;;;;5016117;28;20029;-68
2023/08/21 08:40:46;;;;;;;7.78;4.80;;;25.50;99.90;;;;;;5017284;28;20092;-67
2023/08/21 08:43:12;;;;;;;8.13;5.43;;;25.70;99.90;;;;;;5016470;28;20038;-67
2023/08/21 08:45:40;;;;;;;8.95;5.78;;;25.70;99.90;;;;;;5017021;28;20025;-67
2023/08/21 08:48:06;;;;;;;8.88;5.80;;;25.80;99.90;;;;;;5016912;28;20028;-67
2023/08/21 08:50:33;;;;;;;10.18;5.10;;;25.90;99.90;;;;;;5016288;28;20022;-67
2023/08/21 08:53:00;;;;;;;11.00;5.85;;;25.90;99.90;;;;;;5016376;28;20113;-67
2023/08/21 08:55:26;;;;;;;9.80;5.70;;;26.00;99.90;;;;;;5016325;28;20022;-67
2023/08/21 08:57:52;;;;;;;11.90;5.85;;;26.00;99.90;;;;;;5017053;28;20037;-67
2023/08/21 09:00:20;;;;;;;9.35;5.72;;;26.10;99.90;;;;;;5016599;28;20053;-67
2023/08/21 09:02:46;;;;;;;9.80;5.18;;;26.20;99.90;;;;;;5017199;28;20026;-67
2023/08/21 09:05:12;;;;;;;8.38;5.78;;;26.40;99.90;;;;;;5016776;28;20030;-67
2023/08/21 09:07:38;;;;;;;8.93;5.07;;;26.50;99.90;;;;;;5016894;28;20022;-67
2023/08/21 09:10:04;;;;;;;10.43;6.78;;;26.50;99.90;;;;;;5015959;28;20025;-67
2023/08/21 09:12:32;;;;;;;12.55;5.95;;;26.60;99.90;;;;;;5016562;28;20045;-67
2023/08/21 09:14:58;;;;;;;7.78;6.13;;;26.60;99.90;;;;;;5016875;28;20014;-66
2023/08/21 09:17:25;;;;;;;11.45;5.80;;;26.80;99.90;;;;;;5016741;28;20036;-67
2023/08/21 09:19:51;;;;;;;9.70;5.40;;;26.90;99.90;;;;;;5016167;28;20026;-67
2023/08/21 09:22:18;;;;;;;11.52;5.85;;;27.00;99.90;;;;;;5016580;28;20033;-67
2023/08/21 09:25:05;;;;;;;9.35;5.68;;;27.20;99.90;;;;;;5015852;28;20032;-67
2023/08/21 09:27:30;;;;;;;9.50;5.63;;;27.30;99.90;;;;;;5015713;28;20034;-67
2023/08/21 09:29:57;;;;;;;7.90;5.45;;;27.40;99.90;;;;;;5016887;28;20022;-67
2023/08/21 09:32:22;;;;;;;10.18;6.07;;;27.50;99.90;;;;;;5016888;28;20029;-67
2023/08/21 09:34:48;;;;;;;8.02;5.80;;;27.40;99.90;;;;;;5017948;28;20072;-67
2023/08/21 09:37:13;;;;;;;9.15;5.93;;;27.40;99.90;;;;;;5020413;28;20049;-67
2023/08/21 09:39:40;;;;;;;9.63;5.15;;;27.40;99.90;;;;;;5019066;28;20060;-67
2023/08/21 09:42:09;;;;;;;8.43;6.03;;;27.50;99.90;;;;;;5018847;28;20101;-67
2023/08/21 09:44:42;;;;;;;10.40;5.88;;;27.40;99.90;;;;;;5018835;28;20036;-66
2023/08/21 09:47:09;;;;;;;8.15;6.03;;;27.60;99.90;;;;;;5019883;28;20021;-66
2023/08/21 09:49:37;;;;;;;7.40;4.88;;;27.70;99.90;;;;;;5019139;28;20026;-66
2023/08/21 09:52:05;;;;;;;6.88;4.82;;;28.00;99.90;;;;;;5019630;28;20018;-67
2023/08/21 09:54:31;;;;;;;8.52;5.93;;;28.10;99.90;;;;;;5018970;28;20093;-66
2023/08/21 09:57:01;;;;;;;7.18;5.15;;;28.10;99.90;;;;;;5018745;28;20065;-66
2023/08/21 09:59:27;;;;;;;8.02;5.60;;;28.40;99.90;;;;;;5018882;28;20026;-66
2023/08/21 10:01:52;;;;;;;8.63;5.65;;;28.50;99.90;;;;;;5035105;28;20030;-66
2023/08/21 10:04:20;;;;;;;6.75;5.25;;;28.50;99.90;;;;;;5018751;28;20032;-67
2023/08/21 10:06:47;;;;;;;13.60;5.90;;;28.50;99.90;;;;;;5019424;28;20030;-67
2023/08/21 10:09:14;;;;;;;7.88;5.70;;;28.40;99.90;;;;;;5018582;28;20026;-67
2023/08/21 10:11:40;;;;;;;11.90;5.30;;;28.40;99.90;;;;;;5018511;28;20033;-66
2023/08/21 10:14:07;;;;;;;6.20;5.03;;;28.50;99.90;;;;;;5018465;28;20022;-66
2023/08/21 10:16:33;;;;;;;8.88;4.85;;;28.60;99.90;;;;;;5018844;28;20120;-66
2023/08/21 10:19:05;;;;;;;8.13;5.03;;;28.70;99.90;;;;;;5018564;28;20065;-66
2023/08/21 10:21:36;;;;;;;11.35;4.82;;;28.70;99.90;;;;;;5019240;28;20033;-66
2023/08/21 10:24:01;;;;;;;7.38;4.70;;;28.80;99.90;;;;;;5018295;28;20029;-66
2023/08/21 10:26:27;;;;;;;5.97;4.60;;;29.10;99.90;;;;;;5019338;28;20022;-66
2023/08/21 10:28:55;;;;;;;6.47;4.55;;;29.60;99.90;;;;;;5018171;28;20025;-66
2023/08/21 10:31:34;;;;;;;8.18;4.50;;;30.00;99.90;;;;;;5019043;28;20025;-66
2023/08/21 10:34:05;;;;;;;6.05;4.32;;;30.20;99.90;;;;;;5034667;28;20022;-66
2023/08/21 10:37:00;;;;;;;8.25;5.70;;;30.40;99.90;;;;;;5019101;28;20030;-67
2023/08/21 10:39:26;;;;;;;6.90;3.83;;;30.70;99.90;;;;;;5034758;28;20116;-66
2023/08/21 10:42:08;;;;;;;7.00;4.05;;;30.90;99.90;;;;;;5018085;28;20094;-67
2023/08/21 10:44:48;;;;;;;5.00;4.00;;;31.30;99.90;;;;;;5034116;28;20081;-66
2023/08/21 10:47:26;;;;;;;6.70;3.07;;;31.30;99.90;;;;;;5019141;28;20105;-66
2023/08/21 10:49:59;;;;;;;8.80;3.38;;;31.90;99.90;;;;;;5034385;28;20022;-67
2023/08/21 10:52:28;;;;;;;5.63;4.00;;;33.00;99.90;;;;;;5017748;28;20105;-67
2023/08/21 10:54:59;;;;;;;4.35;3.35;;;33.10;99.90;;;;;;5017648;28;20026;-66
2023/08/21 10:57:28;;;;;;;4.00;3.08;;;33.80;99.90;;;;;;5018571;28;20055;-67
2023/08/21 10:59:56;;;;;;;4.00;3.40;;;34.60;99.90;;;;;;5034080;28;20030;-67
2023/08/21 11:02:23;;;;;;;5.30;3.80;;;34.20;99.90;;;;;;5017835;28;20052;-66
2023/08/21 11:04:49;;;;;;;3.30;2.80;;;33.60;99.90;;;;;;5017776;28;20125;-67
2023/08/21 11:07:15;;;;;;;5.15;2.90;;;33.50;99.90;;;;;;5018396;28;20026;-67
2023/08/21 11:09:41;;;;;;;4.85;2.50;;;34.20;99.90;;;;;;5017507;28;20018;-67
2023/08/21 11:12:28;;;;;;;2.85;2.40;;;35.80;99.90;;;;;;5017343;28;20022;-67
2023/08/21 11:14:54;;;;;;;6.53;2.72;;;36.50;99.70;;;;;;5017901;28;20028;-67
2023/08/21 11:17:20;;;;;;;5.28;3.05;;;36.80;98.70;;;;;;5018283;28;20026;-66
2023/08/21 11:19:48;;;;;;;6.28;2.53;;;36.10;99.60;;;;;;5017139;28;20022;-67
2023/08/21 11:22:13;;;;;;;4.00;2.40;;;34.80;99.90;;;;;;5017219;28;20064;-67
2023/08/21 11:24:42;;;;;;;3.72;2.08;;;34.30;99.90;;;;;;5018255;28;20065;-67
2023/08/21 11:27:13;;;;;;;4.35;2.55;;;34.40;99.90;;;;;;5018167;28;20026;-67
2023/08/21 11:29:40;;;;;;;3.55;2.50;;;35.70;99.20;;;;;;5017392;28;20033;-67
2023/08/21 11:32:17;;;;;;;7.30;2.50;;;36.50;96.80;;;;;;5017038;28;20018;-67
2023/08/21 11:34:49;;;;;;;2.85;1.85;;;36.20;95.40;;;;;;5017914;28;20018;-67
2023/08/21 11:37:16;;;;;;;2.67;2.00;;;36.40;93.70;;;;;;5017046;28;20025;-66
2023/08/21 11:40:03;;;;;;;2.78;1.83;;;37.20;93.70;;;;;;5017186;28;20030;-67
2023/08/21 11:42:31;;;;;;;3.45;1.50;;;37.10;92.10;;;;;;5016028;28;20057;-66
2023/08/21 11:44:58;;;;;;;2.00;1.77;;;37.80;88.70;;;;;;5017803;28;20022;-67
2023/08/21 11:47:29;;;;;;;2.63;1.52;;;37.40;90.10;;;;;;5016703;28;20057;-67
2023/08/21 11:49:54;;;;;;;2.92;1.60;;;37.70;90.00;;;;;;5016805;28;20053;-66
2023/08/21 11:52:22;;;;;;;2.22;1.70;;;37.20;92.10;;;;;;5016529;28;20022;-67
2023/08/21 11:54:53;;;;;;;3.17;2.10;;;36.60;91.80;;;;;;5016911;28;20022;-68
2023/08/21 11:57:19;;;;;;;2.05;1.88;;;37.00;90.90;;;;;;5016696;28;20029;-68
2023/08/21 11:59:52;;;;;;;4.88;1.90;;;37.70;90.40;;;;;;5016605;28;20025;-68
2023/08/21 12:02:24;;;;;;;3.78;1.70;;;37.90;88.40;;;;;;5017775;28;20037;-68
2023/08/21 12:05:07;;;;;;;3.42;1.90;;;38.00;87.20;;;;;;5017488;28;20076;-68
2023/08/21 12:07:33;;;;;;;2.65;1.95;;;37.70;88.50;;;;;;5017722;28;20049;-68
2023/08/21 12:09:59;;;;;;;4.32;2.00;;;37.60;87.90;;;;;;5016335;28;20018;-68
2023/08/21 12:12:25;;;;;;;2.20;2.00;;;39.20;85.30;;;;;;5016412;28;20116;-68
2023/08/21 12:14:51;;;;;;;2.40;2.20;;;39.40;84.50;;;;;;5017165;28;20030;-68
2023/08/21 12:17:16;;;;;;;3.40;1.98;;;40.10;80.60;;;;;;5017262;28;20026;-67
2023/08/21 12:19:43;;;;;;;3.15;1.90;;;40.50;78.60;;;;;;5016230;28;20103;-67
2023/08/21 12:22:09;;;;;;;2.38;2.17;;;39.90;80.40;;;;;;5016373;28;20030;-68
2023/08/21 12:24:34;;;;;;;3.03;2.00;;;40.00;79.90;;;;;;5016643;28;20041;-67
2023/08/21 12:27:00;;;;;;;4.60;2.17;;;40.60;79.10;;;;;;5016090;28;20026;-67
2023/08/21 12:29:26;;;;;;;4.30;2.08;;;40.00;79.10;;;;;;5016287;28;20026;-67
2023/08/21 12:31:51;;;;;;;2.63;2.30;;;40.50;78.20;;;;;;5032640;28;20022;-67
2023/08/21 12:34:17;;;;;;;4.82;2.22;;;39.50;81.40;;;;;;5017269;28;20022;-67
2023/08/21 12:36:42;;;;;;;2.67;2.13;;;39.60;78.70;;;;;;5017376;28;20022;-67
2023/08/21 12:39:08;;;;;;;2.30;1.63;;;40.10;76.80;;;;;;5016242;28;20033;-68